Time;durP1;ratioP1;P1;durP2;ratioP2;P2;SDS_P1;SDS_P2;PMS_P1;PMS_P2;Temp;Humidity;BMP_temperature;BMP_pressure;BME280_temperature;BME280_humidity;BME280_pressure;Samples;Min_cycle;Max_cycle;Signal;HPM_P1;HPM_P2
2022/07/06 00:02:04;;;;;;;2.13;0.90;;;19.10;69.20;;;;;;5033450;28;20430;-47
2022/07/06 00:04:31;;;;;;;3.00;1.30;;;18.90;69.10;;;;;;5033559;28;20434;-47
2022/07/06 00:06:58;;;;;;;4.07;1.10;;;19.00;69.60;;;;;;5033473;28;20458;-47
2022/07/06 00:09:26;;;;;;;2.40;1.50;;;19.00;69.70;;;;;;5033164;28;20447;-47
2022/07/06 00:11:52;;;;;;;2.13;1.20;;;19.00;69.90;;;;;;5033351;28;20478;-46
2022/07/06 00:14:19;;;;;;;2.30;1.27;;;19.00;70.10;;;;;;5033465;28;20446;-46
2022/07/06 00:16:46;;;;;;;5.37;1.30;;;18.80;70.00;;;;;;5033390;28;20461;-47
2022/07/06 00:19:12;;;;;;;6.37;1.40;;;18.90;70.50;;;;;;5033034;28;20430;-47
2022/07/06 00:21:39;;;;;;;4.77;1.17;;;18.80;70.60;;;;;;5033380;28;20485;-46
2022/07/06 00:24:06;;;;;;;3.27;1.30;;;18.90;70.90;;;;;;5033380;28;20450;-47
2022/07/06 00:26:34;;;;;;;6.97;1.37;;;19.00;71.20;;;;;;5032826;28;20457;-47
2022/07/06 00:29:00;;;;;;;3.80;1.10;;;19.00;71.80;;;;;;5032705;28;20434;-47
2022/07/06 00:31:27;;;;;;;3.80;1.27;;;18.60;71.60;;;;;;5032802;28;20509;-46
2022/07/06 00:33:53;;;;;;;5.00;1.70;;;18.70;71.80;;;;;;5031630;28;20450;-46
2022/07/06 00:36:20;;;;;;;5.00;1.20;;;18.80;72.20;;;;;;5031950;28;20485;-47
2022/07/06 00:38:47;;;;;;;1.60;1.13;;;18.70;72.00;;;;;;5032604;28;20443;-47
2022/07/06 00:41:14;;;;;;;2.57;1.30;;;18.70;72.20;;;;;;5032702;28;20483;-47
2022/07/06 00:43:49;;;;;;;5.37;1.90;;;18.60;72.30;;;;;;5032888;28;20470;-46
2022/07/06 00:46:16;;;;;;;26.87;10.53;;;18.60;72.60;;;;;;5031446;28;21016;-46
2022/07/06 00:48:43;;;;;;;7.10;1.83;;;18.60;72.70;;;;;;5032389;28;20441;-47
2022/07/06 00:51:10;;;;;;;23.57;4.40;;;18.60;72.70;;;;;;5032841;28;20435;-46
2022/07/06 00:53:37;;;;;;;24.87;5.33;;;18.60;72.80;;;;;;5031185;28;20495;-47
2022/07/06 00:56:04;;;;;;;9.33;3.90;;;18.60;72.90;;;;;;5031158;28;20481;-46
2022/07/06 00:58:31;;;;;;;8.30;2.47;;;18.60;73.20;;;;;;5032212;28;20449;-47
2022/07/06 01:00:59;;;;;;;11.73;4.20;;;18.50;73.60;;;;;;5032210;28;20515;-47
2022/07/06 01:03:26;;;;;;;2.03;1.17;;;18.50;73.60;;;;;;5032753;28;20433;-46
2022/07/06 01:05:52;;;;;;;23.93;6.60;;;19.10;74.30;;;;;;5033343;28;21005;-45
2022/07/06 01:08:19;;;;;;;14.10;4.47;;;18.50;73.90;;;;;;5031441;28;20552;-45
2022/07/06 01:10:46;;;;;;;6.40;2.90;;;18.50;73.90;;;;;;5031285;28;20456;-46
2022/07/06 01:13:13;;;;;;;2.37;1.50;;;18.50;73.90;;;;;;5032314;28;20799;-46
2022/07/06 01:15:40;;;;;;;7.07;3.73;;;18.50;73.90;;;;;;5030780;28;20584;-46
2022/07/06 01:18:13;;;;;;;76.27;15.97;;;18.60;74.00;;;;;;5030929;28;20618;-45
2022/07/06 01:20:41;;;;;;;33.23;11.30;;;18.80;74.40;;;;;;5030378;28;20469;-46
2022/07/06 01:23:08;;;;;;;30.90;8.37;;;18.50;74.00;;;;;;5030371;28;20460;-46
2022/07/06 01:25:34;;;;;;;19.00;6.33;;;18.60;74.30;;;;;;5030416;28;20475;-46
2022/07/06 01:28:01;;;;;;;18.03;5.20;;;18.40;74.30;;;;;;5030572;28;20454;-45
2022/07/06 01:30:28;;;;;;;7.40;2.83;;;19.00;75.00;;;;;;5031446;28;20833;-46
2022/07/06 01:32:54;;;;;;;2.27;1.00;;;18.50;74.30;;;;;;5032186;28;20446;-46
2022/07/06 01:35:21;;;;;;;10.20;3.63;;;18.50;74.50;;;;;;5031636;28;20462;-46
2022/07/06 01:37:49;;;;;;;3.90;2.50;;;18.40;74.40;;;;;;5031919;28;20433;-45
2022/07/06 01:40:15;;;;;;;9.77;3.73;;;18.50;74.60;;;;;;5029972;28;20796;-45
2022/07/06 01:42:42;;;;;;;9.50;2.87;;;18.40;74.60;;;;;;5031712;28;20922;-46
2022/07/06 01:45:10;;;;;;;3.77;1.23;;;18.50;74.60;;;;;;5030121;28;20456;-45
2022/07/06 01:47:38;;;;;;;2.17;1.20;;;18.40;74.80;;;;;;5030230;28;20462;-46
2022/07/06 01:50:08;;;;;;;2.70;1.27;;;18.40;74.70;;;;;;5029844;28;20608;-45
2022/07/06 01:52:37;;;;;;;4.10;1.37;;;18.20;74.70;;;;;;5030144;28;20460;-46
2022/07/06 01:55:06;;;;;;;2.33;1.00;;;18.40;75.10;;;;;;5030064;28;20462;-47
2022/07/06 01:57:35;;;;;;;4.00;1.40;;;18.40;74.90;;;;;;5031732;28;20480;-46
2022/07/06 02:00:01;;;;;;;2.50;1.17;;;18.40;74.90;;;;;;5030998;28;20541;-46
2022/07/06 02:02:28;;;;;;;4.63;1.50;;;18.40;74.90;;;;;;5031455;28;20419;-47
2022/07/06 02:04:55;;;;;;;3.73;1.20;;;18.40;75.00;;;;;;5029872;28;20472;-47
2022/07/06 02:07:22;;;;;;;2.13;1.20;;;18.40;74.70;;;;;;5030064;28;20540;-47
2022/07/06 02:09:48;;;;;;;2.00;1.40;;;18.40;74.80;;;;;;5030632;28;20454;-47
2022/07/06 02:12:16;;;;;;;2.30;1.40;;;18.40;74.70;;;;;;5031398;28;20457;-47
2022/07/06 02:14:43;;;;;;;2.17;1.17;;;18.40;74.50;;;;;;5030769;28;20457;-46
2022/07/06 02:17:09;;;;;;;2.73;1.23;;;18.70;74.80;;;;;;5030462;28;20469;-47
2022/07/06 02:19:36;;;;;;;4.23;1.43;;;18.50;74.20;;;;;;5031207;28;20437;-47
2022/07/06 02:22:03;;;;;;;3.43;1.80;;;18.50;74.30;;;;;;5030383;28;21003;-47
2022/07/06 02:24:29;;;;;;;6.70;1.40;;;18.70;75.00;;;;;;5031490;28;20404;-47
2022/07/06 02:26:56;;;;;;;5.67;1.67;;;18.50;75.10;;;;;;5029950;28;20473;-47
2022/07/06 02:29:25;;;;;;;4.00;1.60;;;18.50;77.50;;;;;;5029435;28;20466;-47
2022/07/06 02:31:52;;;;;;;6.07;1.70;;;18.70;78.80;;;;;;5029851;28;20477;-47
2022/07/06 02:34:19;;;;;;;5.27;1.80;;;18.60;80.60;;;;;;5029657;28;20515;-47
2022/07/06 02:36:45;;;;;;;7.47;2.60;;;18.50;81.30;;;;;;5029328;28;20486;-47
2022/07/06 02:39:12;;;;;;;3.17;1.97;;;18.50;81.80;;;;;;5030595;28;20519;-47
2022/07/06 02:41:41;;;;;;;7.33;1.87;;;18.50;83.00;;;;;;5029600;28;20489;-47
2022/07/06 02:44:07;;;;;;;7.43;2.17;;;18.30;84.90;;;;;;5029459;28;20473;-47
2022/07/06 02:46:35;;;;;;;5.20;2.70;;;18.40;86.00;;;;;;5029447;28;20494;-47
2022/07/06 02:49:02;;;;;;;4.93;2.00;;;18.40;87.80;;;;;;5029132;28;20528;-47
2022/07/06 02:51:29;;;;;;;3.40;2.20;;;18.30;90.20;;;;;;5029407;28;20446;-46
2022/07/06 02:53:55;;;;;;;5.43;2.23;;;18.30;90.70;;;;;;5029411;28;20975;-47
2022/07/06 02:56:22;;;;;;;5.93;1.77;;;18.20;91.00;;;;;;5029368;28;20568;-46
2022/07/06 02:58:49;;;;;;;2.50;1.73;;;17.80;91.70;;;;;;5028897;28;20449;-47
2022/07/06 03:01:16;;;;;;;2.13;1.60;;;18.10;92.60;;;;;;5029174;28;21006;-47
2022/07/06 03:03:44;;;;;;;3.73;1.67;;;18.40;92.80;;;;;;5029493;28;20460;-47
2022/07/06 03:06:11;;;;;;;4.87;1.80;;;18.20;92.40;;;;;;5029166;28;20481;-47
2022/07/06 03:08:38;;;;;;;4.43;1.90;;;18.00;92.30;;;;;;5028782;28;20862;-47
2022/07/06 03:11:05;;;;;;;5.13;2.00;;;18.40;92.10;;;;;;5029147;28;20460;-47
2022/07/06 03:13:32;;;;;;;5.07;2.00;;;18.00;92.30;;;;;;5029256;28;20455;-47
2022/07/06 03:15:59;;;;;;;5.40;2.30;;;17.90;93.10;;;;;;5029228;28;20473;-47
2022/07/06 03:18:26;;;;;;;6.90;1.80;;;18.10;93.60;;;;;;5028815;28;20456;-47
2022/07/06 03:20:54;;;;;;;7.77;2.73;;;18.30;94.00;;;;;;5029100;28;20473;-47
2022/07/06 03:23:22;;;;;;;4.17;1.90;;;18.00;93.90;;;;;;5029470;28;20446;-47
2022/07/06 03:25:48;;;;;;;4.07;2.27;;;18.00;93.90;;;;;;5030028;28;20482;-47
2022/07/06 03:28:16;;;;;;;4.43;1.97;;;17.90;93.90;;;;;;5029299;28;20790;-47
2022/07/06 03:30:42;;;;;;;4.00;1.67;;;18.10;94.00;;;;;;5030390;28;20433;-46
2022/07/06 03:33:09;;;;;;;7.70;2.30;;;17.80;93.90;;;;;;5032866;28;20906;-47
2022/07/06 03:35:36;;;;;;;5.20;2.30;;;17.90;94.50;;;;;;5032622;28;20488;-47
2022/07/06 03:38:07;;;;;;;7.27;2.27;;;18.10;94.60;;;;;;5032688;28;20450;-46
2022/07/06 03:40:35;;;;;;;4.60;2.33;;;18.20;95.10;;;;;;5032585;28;20469;-47
2022/07/06 03:43:01;;;;;;;2.67;1.97;;;18.30;95.20;;;;;;5033033;28;20544;-46
2022/07/06 03:45:32;;;;;;;8.50;2.57;;;18.00;95.10;;;;;;5032826;28;20539;-47
2022/07/06 03:48:00;;;;;;;3.20;2.27;;;18.10;95.10;;;;;;5032649;28;20456;-47
2022/07/06 03:50:27;;;;;;;3.60;2.30;;;17.90;95.10;;;;;;5032379;28;21133;-47
2022/07/06 03:52:54;;;;;;;2.90;2.20;;;17.90;95.70;;;;;;5032518;28;20456;-47
2022/07/06 03:55:21;;;;;;;3.97;2.17;;;17.90;95.70;;;;;;5033907;28;20467;-47
2022/07/06 03:57:53;;;;;;;4.77;2.67;;;17.70;95.30;;;;;;5032318;28;20477;-47
2022/07/06 04:00:23;;;;;;;6.40;2.23;;;17.70;95.40;;;;;;5032202;28;20453;-47
2022/07/06 04:02:57;;;;;;;3.17;1.97;;;18.00;95.60;;;;;;5032264;28;20435;-47
2022/07/06 04:05:28;;;;;;;4.50;2.60;;;18.00;95.90;;;;;;5032025;28;20469;-47
2022/07/06 04:07:55;;;;;;;4.97;2.13;;;18.10;95.90;;;;;;5032232;28;20457;-46
2022/07/06 04:10:28;;;;;;;3.57;1.90;;;18.40;96.00;;;;;;5032025;28;20946;-46
2022/07/06 04:12:57;;;;;;;5.10;2.23;;;18.20;95.80;;;;;;5033602;28;20440;-45
2022/07/06 04:15:25;;;;;;;5.90;2.20;;;18.30;95.50;;;;;;5032142;28;20849;-46
2022/07/06 04:17:55;;;;;;;4.77;2.40;;;18.10;95.00;;;;;;5031944;28;20456;-46
2022/07/06 04:20:27;;;;;;;6.40;1.80;;;18.40;95.10;;;;;;5031761;28;20456;-46
2022/07/06 04:22:54;;;;;;;3.97;2.17;;;18.50;94.10;;;;;;5033074;28;21003;-46
2022/07/06 04:25:24;;;;;;;4.40;2.40;;;18.50;93.50;;;;;;5031832;28;20508;-46
2022/07/06 04:27:52;;;;;;;7.50;2.40;;;18.60;93.50;;;;;;5031691;28;20575;-46
2022/07/06 04:30:19;;;;;;;4.40;2.00;;;19.10;93.30;;;;;;5031505;28;20530;-47
2022/07/06 04:32:45;;;;;;;3.90;2.00;;;19.10;92.90;;;;;;5031652;28;20450;-47
2022/07/06 04:35:12;;;;;;;3.00;2.17;;;18.90;92.70;;;;;;5032615;28;20936;-48
2022/07/06 04:37:40;;;;;;;4.03;1.77;;;18.90;92.30;;;;;;5031642;28;20557;-46
2022/07/06 04:40:08;;;;;;;6.73;2.00;;;18.70;91.90;;;;;;5031488;28;20465;-46
2022/07/06 04:42:35;;;;;;;7.93;2.30;;;18.60;92.00;;;;;;5030738;28;20473;-46
2022/07/06 04:45:05;;;;;;;6.67;2.10;;;19.00;92.20;;;;;;5031559;28;20456;-47
2022/07/06 04:47:32;;;;;;;7.33;2.10;;;18.90;92.10;;;;;;5032430;28;20977;-47
2022/07/06 04:49:59;;;;;;;7.87;1.97;;;18.90;91.80;;;;;;5031623;28;20576;-47
2022/07/06 04:52:25;;;;;;;4.60;1.80;;;19.20;91.80;;;;;;5031698;28;20991;-48
2022/07/06 04:54:52;;;;;;;3.90;1.60;;;19.20;91.50;;;;;;5031566;28;20457;-47
2022/07/06 04:57:19;;;;;;;5.67;2.10;;;19.30;90.70;;;;;;5031545;28;20478;-47
2022/07/06 04:59:46;;;;;;;3.93;1.50;;;19.50;90.50;;;;;;5031150;28;20509;-47
2022/07/06 05:02:14;;;;;;;2.47;1.40;;;19.50;90.40;;;;;;5031135;28;20509;-47
2022/07/06 05:04:41;;;;;;;6.07;1.80;;;19.50;89.80;;;;;;5031424;28;20546;-47
2022/07/06 05:07:08;;;;;;;3.43;1.30;;;19.70;89.30;;;;;;5030678;28;20841;-46
2022/07/06 05:09:34;;;;;;;5.17;1.83;;;19.60;88.90;;;;;;5030338;28;20466;-47
2022/07/06 05:12:01;;;;;;;8.03;2.17;;;19.60;89.30;;;;;;5030923;28;20783;-47
2022/07/06 05:14:28;;;;;;;5.87;1.70;;;19.70;89.10;;;;;;5030688;28;20486;-47
2022/07/06 05:16:56;;;;;;;5.50;1.90;;;19.70;89.20;;;;;;5030622;28;20478;-48
2022/07/06 05:19:25;;;;;;;8.07;2.00;;;19.40;87.80;;;;;;5030437;28;20859;-47
2022/07/06 05:21:52;;;;;;;4.60;1.93;;;19.70;87.80;;;;;;5030180;28;20563;-48
2022/07/06 05:24:19;;;;;;;3.23;1.40;;;19.80;87.30;;;;;;5031938;28;20435;-48
2022/07/06 05:26:46;;;;;;;5.90;1.90;;;20.10;86.70;;;;;;5030396;28;20955;-48
2022/07/06 05:29:14;;;;;;;3.57;1.60;;;19.80;85.70;;;;;;5030484;28;20439;-47
2022/07/06 05:31:40;;;;;;;5.30;1.70;;;19.90;85.00;;;;;;5030631;28;20456;-47
2022/07/06 05:34:07;;;;;;;3.33;1.20;;;20.00;84.80;;;;;;5031631;28;20435;-47
2022/07/06 05:36:35;;;;;;;3.50;1.40;;;20.00;84.30;;;;;;5030375;28;20495;-47
2022/07/06 05:39:03;;;;;;;6.80;1.67;;;20.10;84.00;;;;;;5030207;28;20459;-47
2022/07/06 05:41:30;;;;;;;5.20;1.93;;;20.10;84.40;;;;;;5030121;28;20486;-47
2022/07/06 05:43:58;;;;;;;3.53;1.80;;;20.20;83.50;;;;;;5030152;28;20963;-47
2022/07/06 05:46:24;;;;;;;5.20;1.60;;;20.20;83.90;;;;;;5030108;28;20580;-47
2022/07/06 05:51:36;;;;;;;4.03;1.60;;;20.30;82.40;;;;;;5029831;28;20466;-48
2022/07/06 05:54:03;;;;;;;6.03;2.00;;;20.40;82.20;;;;;;5031132;28;20440;-48
2022/07/06 05:56:31;;;;;;;4.20;1.37;;;20.40;81.90;;;;;;5029954;28;20478;-47
2022/07/06 05:58:58;;;;;;;5.57;1.67;;;20.50;81.70;;;;;;5029571;28;20924;-47
2022/07/06 06:01:24;;;;;;;5.27;1.70;;;20.60;81.10;;;;;;5029861;28;20452;-47
2022/07/06 06:04:01;;;;;;;5.27;1.53;;;20.60;80.40;;;;;;5030348;28;20483;-48
2022/07/06 06:06:31;;;;;;;5.77;2.07;;;20.50;80.00;;;;;;5030085;28;20803;-47
2022/07/06 06:08:59;;;;;;;10.33;2.03;;;20.50;80.50;;;;;;5029539;28;20457;-47
2022/07/06 06:11:25;;;;;;;4.50;1.67;;;20.60;80.60;;;;;;5030219;28;21060;-48
2022/07/06 06:13:52;;;;;;;5.27;2.43;;;20.70;80.70;;;;;;5030372;28;20465;-47
2022/07/06 06:16:19;;;;;;;5.00;1.70;;;20.70;80.40;;;;;;5029947;28;20545;-48
2022/07/06 06:18:47;;;;;;;5.43;2.13;;;20.80;79.80;;;;;;5029129;28;20478;-47
2022/07/06 06:21:13;;;;;;;3.97;1.80;;;20.90;79.50;;;;;;5031204;28;20435;-48
2022/07/06 06:23:40;;;;;;;8.20;2.20;;;20.90;79.30;;;;;;5030806;28;20431;-48
2022/07/06 06:26:09;;;;;;;6.40;2.70;;;21.00;79.30;;;;;;5031364;28;20476;-48
2022/07/06 06:28:36;;;;;;;3.73;1.60;;;21.10;79.40;;;;;;5029693;28;20446;-48
2022/07/06 06:31:03;;;;;;;5.30;1.83;;;21.20;78.90;;;;;;5030944;28;20436;-47
2022/07/06 06:33:29;;;;;;;6.07;2.07;;;21.20;78.60;;;;;;5031028;28;20429;-47
2022/07/06 06:35:56;;;;;;;3.20;1.60;;;21.10;78.40;;;;;;5044890;22;20979;-45
2022/07/06 06:38:25;;;;;;;8.23;1.83;;;21.00;78.20;;;;;;5032057;28;20807;-45
2022/07/06 06:40:52;;;;;;;4.10;1.30;;;21.20;78.30;;;;;;5033006;28;20438;-44
2022/07/06 06:43:20;;;;;;;5.03;1.77;;;21.20;78.30;;;;;;5032170;28;20930;-45
2022/07/06 06:46:08;;;;;;;4.10;1.60;;;21.30;78.50;;;;;;5030686;28;20463;-45
2022/07/06 06:48:34;;;;;;;3.60;1.57;;;21.30;77.80;;;;;;5031999;28;20496;-45
2022/07/06 06:51:01;;;;;;;6.07;1.57;;;21.30;77.40;;;;;;5032220;28;20439;-46
2022/07/06 06:53:27;;;;;;;4.50;1.60;;;21.30;77.40;;;;;;5032276;28;20539;-45
2022/07/06 06:55:54;;;;;;;6.73;3.23;;;21.30;77.00;;;;;;5031782;28;20517;-44
2022/07/06 06:58:22;;;;;;;7.27;1.50;;;21.00;76.20;;;;;;5031089;28;20950;-45
2022/07/06 07:00:48;;;;;;;4.30;1.50;;;21.00;76.40;;;;;;5032453;28;20441;-44
2022/07/06 07:03:15;;;;;;;5.73;1.63;;;20.70;75.90;;;;;;5031692;28;20531;-44
2022/07/06 07:05:42;;;;;;;4.90;1.43;;;20.90;76.60;;;;;;5031623;28;20504;-43
2022/07/06 07:08:08;;;;;;;5.33;1.83;;;20.50;76.60;;;;;;5035953;28;20810;-43
2022/07/06 07:10:35;;;;;;;3.40;1.37;;;21.10;77.70;;;;;;5035507;28;20435;-44
2022/07/06 07:13:02;;;;;;;4.80;1.50;;;21.00;77.10;;;;;;5035743;28;20425;-44
2022/07/06 07:15:29;;;;;;;4.63;2.30;;;21.00;77.00;;;;;;5034640;28;20498;-46
2022/07/06 07:17:56;;;;;;;4.73;1.80;;;21.10;76.50;;;;;;5035813;28;20439;-44
2022/07/06 07:20:23;;;;;;;7.10;2.03;;;21.20;76.00;;;;;;5035960;28;20463;-45
2022/07/06 07:22:50;;;;;;;4.83;1.53;;;21.40;75.20;;;;;;5035662;28;20494;-45
2022/07/06 07:25:16;;;;;;;3.80;1.40;;;21.50;74.80;;;;;;5035429;28;20508;-45
2022/07/06 07:27:43;;;;;;;3.30;1.37;;;21.30;74.40;;;;;;5035160;28;20456;-45
2022/07/06 07:30:11;;;;;;;7.30;2.00;;;21.70;74.90;;;;;;5035471;28;20791;-44
2022/07/06 07:32:40;;;;;;;4.07;1.20;;;21.50;74.50;;;;;;5036007;28;20437;-45
2022/07/06 07:35:07;;;;;;;7.43;1.50;;;21.80;74.10;;;;;;5036054;28;20434;-44
2022/07/06 07:37:34;;;;;;;4.87;1.33;;;21.40;73.30;;;;;;5035418;28;20480;-45
2022/07/06 07:40:02;;;;;;;4.77;1.53;;;21.40;72.80;;;;;;5034875;28;20428;-45
2022/07/06 07:42:28;;;;;;;3.87;1.53;;;21.10;71.60;;;;;;5033548;28;20477;-46
2022/07/06 07:44:55;;;;;;;3.40;1.17;;;21.30;71.60;;;;;;5035169;28;20440;-45
2022/07/06 07:47:22;;;;;;;6.20;1.80;;;21.10;70.80;;;;;;5035071;28;20459;-45
2022/07/06 07:49:50;;;;;;;6.70;1.73;;;21.50;71.20;;;;;;5035069;28;20437;-45
2022/07/06 07:52:16;;;;;;;4.90;1.50;;;21.60;69.20;;;;;;5035119;28;20433;-45
2022/07/06 07:54:43;;;;;;;8.03;2.47;;;21.60;68.70;;;;;;5034789;28;20487;-45
2022/07/06 07:57:10;;;;;;;5.40;1.33;;;22.00;67.70;;;;;;5035102;28;20970;-46
2022/07/06 07:59:37;;;;;;;5.10;1.30;;;22.00;65.90;;;;;;5034492;28;20433;-45
2022/07/06 08:02:04;;;;;;;3.50;1.60;;;22.00;66.20;;;;;;5033884;28;20613;-44
2022/07/06 08:04:30;;;;;;;2.57;1.13;;;21.90;66.50;;;;;;5035206;28;20437;-45
2022/07/06 08:06:58;;;;;;;2.20;1.40;;;21.70;66.40;;;;;;5034172;28;20527;-44
2022/07/06 08:09:25;;;;;;;5.00;1.50;;;21.60;66.90;;;;;;5033970;28;20526;-44
2022/07/06 08:11:52;;;;;;;5.43;1.20;;;21.90;67.20;;;;;;5034668;28;20438;-43
2022/07/06 08:14:19;;;;;;;4.63;1.50;;;21.60;67.10;;;;;;5034898;28;20439;-45
2022/07/06 08:16:45;;;;;;;3.90;1.60;;;21.60;67.10;;;;;;5034541;28;20500;-45
2022/07/06 08:19:14;;;;;;;3.90;1.63;;;21.70;66.70;;;;;;5033188;28;20448;-45
2022/07/06 08:21:41;;;;;;;4.17;1.57;;;21.90;66.00;;;;;;5035080;28;20454;-45
2022/07/06 08:24:10;;;;;;;4.37;1.13;;;21.90;66.00;;;;;;5034384;28;20583;-44
2022/07/06 08:26:37;;;;;;;6.90;1.40;;;22.00;65.50;;;;;;5034491;28;20462;-44
2022/07/06 08:29:04;;;;;;;2.80;1.50;;;22.00;65.50;;;;;;5033917;28;20437;-45
2022/07/06 08:31:31;;;;;;;2.70;1.17;;;22.00;65.30;;;;;;5034292;28;20926;-44
2022/07/06 08:33:59;;;;;;;5.57;1.40;;;21.80;65.40;;;;;;5034144;28;20441;-45
2022/07/06 08:36:25;;;;;;;3.00;1.40;;;22.10;66.20;;;;;;5034847;28;20467;-44
2022/07/06 08:38:52;;;;;;;3.23;1.50;;;22.30;66.70;;;;;;5035021;28;20439;-43
2022/07/06 08:41:23;;;;;;;5.50;1.20;;;22.10;66.70;;;;;;5034628;28;20435;-44
2022/07/06 08:43:51;;;;;;;9.80;2.10;;;22.50;66.60;;;;;;5034113;28;20488;-44
2022/07/06 08:46:19;;;;;;;4.03;1.30;;;22.50;66.10;;;;;;5034129;28;20529;-45
2022/07/06 08:48:46;;;;;;;5.57;1.30;;;22.50;64.80;;;;;;5033553;28;20465;-46
2022/07/06 08:51:15;;;;;;;4.17;1.20;;;22.50;64.00;;;;;;5032719;28;20958;-46
2022/07/06 08:53:42;;;;;;;2.63;1.13;;;22.20;63.10;;;;;;5033853;28;20820;-45
2022/07/06 08:56:10;;;;;;;4.03;1.10;;;22.00;62.60;;;;;;5033780;28;20992;-43
2022/07/06 08:58:41;;;;;;;3.20;1.17;;;21.90;61.90;;;;;;5033702;28;20459;-45
2022/07/06 09:01:10;;;;;;;2.90;0.90;;;21.90;61.80;;;;;;5033473;28;20470;-45
2022/07/06 09:03:37;;;;;;;2.80;1.00;;;21.60;59.40;;;;;;5034220;28;20482;-45
2022/07/06 09:06:04;;;;;;;3.90;0.97;;;21.80;58.50;;;;;;5033097;28;20974;-45
2022/07/06 09:08:32;;;;;;;4.80;1.00;;;21.90;58.40;;;;;;5033206;28;20441;-44
2022/07/06 09:10:59;;;;;;;3.97;1.07;;;22.00;58.30;;;;;;5033463;28;20521;-44
2022/07/06 09:13:25;;;;;;;2.87;1.17;;;22.00;58.00;;;;;;5033352;28;20452;-44
2022/07/06 09:15:53;;;;;;;2.87;1.50;;;22.00;57.30;;;;;;5033530;28;20459;-46
2022/07/06 09:18:22;;;;;;;7.67;1.40;;;22.50;57.90;;;;;;5033583;28;20443;-45
2022/07/06 09:20:49;;;;;;;2.70;1.17;;;22.70;57.60;;;;;;5033260;28;20932;-46
2022/07/06 09:23:17;;;;;;;1.77;0.90;;;22.40;57.50;;;;;;5032855;28;20496;-46
2022/07/06 09:25:48;;;;;;;2.40;1.10;;;22.50;57.50;;;;;;5032842;28;20826;-44
2022/07/06 09:28:15;;;;;;;2.53;1.00;;;22.50;57.00;;;;;;5031843;28;20458;-44
2022/07/06 09:30:41;;;;;;;2.77;1.63;;;22.60;56.50;;;;;;5032464;28;20529;-44
2022/07/06 09:33:10;;;;;;;1.77;0.80;;;22.30;55.80;;;;;;5032905;28;20443;-45
2022/07/06 09:35:38;;;;;;;4.40;1.10;;;22.80;55.70;;;;;;5032795;28;20435;-45
2022/07/06 09:38:06;;;;;;;6.00;1.00;;;22.70;55.60;;;;;;5033489;28;20526;-45
2022/07/06 09:40:35;;;;;;;4.40;1.13;;;22.70;55.70;;;;;;5032455;28;20475;-44
2022/07/06 09:43:13;;;;;;;5.30;0.80;;;22.50;55.30;;;;;;5032790;28;20565;-45
2022/07/06 09:45:41;;;;;;;2.80;0.90;;;22.60;54.20;;;;;;5033103;28;20454;-45
2022/07/06 09:48:11;;;;;;;2.97;0.97;;;22.30;54.30;;;;;;5032863;28;20553;-44
2022/07/06 09:50:44;;;;;;;2.90;1.40;;;22.40;54.30;;;;;;5032292;28;20447;-44
2022/07/06 09:53:12;;;;;;;4.00;1.07;;;22.20;54.50;;;;;;5032632;28;20533;-45
2022/07/06 09:55:39;;;;;;;3.20;1.27;;;22.40;54.70;;;;;;5032464;28;20461;-44
2022/07/06 09:58:06;;;;;;;5.47;1.40;;;22.50;54.80;;;;;;5032737;28;20915;-45
2022/07/06 10:00:33;;;;;;;2.70;1.23;;;22.80;55.30;;;;;;5031984;28;20877;-45
2022/07/06 10:03:01;;;;;;;2.50;0.90;;;22.50;55.40;;;;;;5032423;28;20475;-45
2022/07/06 10:05:30;;;;;;;3.67;1.17;;;22.90;56.20;;;;;;5032540;28;20431;-44
2022/07/06 10:07:59;;;;;;;3.33;1.30;;;22.90;56.30;;;;;;5032628;28;20438;-44
2022/07/06 10:10:27;;;;;;;3.80;0.80;;;22.80;56.10;;;;;;5032240;28;20529;-45
2022/07/06 10:12:56;;;;;;;3.20;0.90;;;22.70;55.80;;;;;;5032631;28;20924;-45
2022/07/06 10:15:25;;;;;;;2.03;1.17;;;22.60;56.20;;;;;;5032565;28;20838;-46
2022/07/06 10:17:52;;;;;;;4.53;1.50;;;22.50;56.80;;;;;;5032935;28;20458;-44
2022/07/06 10:20:19;;;;;;;3.87;1.10;;;22.50;57.10;;;;;;5032077;28;20434;-44
2022/07/06 10:22:48;;;;;;;7.83;1.50;;;22.40;57.50;;;;;;5032632;28;20439;-44
2022/07/06 10:25:16;;;;;;;1.80;0.97;;;22.40;57.70;;;;;;5030805;28;20453;-44
2022/07/06 10:27:43;;;;;;;3.50;1.20;;;22.30;57.40;;;;;;5032224;28;20446;-45
2022/07/06 10:30:11;;;;;;;2.50;0.80;;;22.40;57.70;;;;;;5032135;28;20435;-44
2022/07/06 10:32:40;;;;;;;6.20;1.10;;;22.10;57.40;;;;;;5032080;28;20449;-45
2022/07/06 10:35:08;;;;;;;4.60;1.00;;;22.70;57.80;;;;;;5032811;28;20444;-45
2022/07/06 10:37:34;;;;;;;7.73;1.83;;;22.80;57.60;;;;;;5033142;28;20471;-45
2022/07/06 10:42:51;;;;;;;3.23;1.47;;;22.60;56.90;;;;;;5030370;28;20819;-45
2022/07/06 10:45:41;;;;;;;4.73;1.80;;;23.10;56.40;;;;;;5031577;28;20430;-45
2022/07/06 10:48:18;;;;;;;4.93;1.10;;;23.20;56.00;;;;;;5031544;28;20503;-45
2022/07/06 10:50:49;;;;;;;4.07;0.90;;;23.30;56.10;;;;;;5030620;28;20459;-45
2022/07/06 10:53:16;;;;;;;1.70;0.77;;;23.30;55.30;;;;;;5031747;28;20899;-45
2022/07/06 10:55:46;;;;;;;4.13;0.93;;;23.30;55.10;;;;;;5031765;28;20455;-44
2022/07/06 10:58:12;;;;;;;1.70;0.80;;;23.20;55.10;;;;;;5031747;28;20441;-44
2022/07/06 11:00:53;;;;;;;3.10;0.80;;;23.30;55.00;;;;;;5031593;28;20804;-44
2022/07/06 11:03:43;;;;;;;2.87;1.13;;;23.00;55.20;;;;;;5032176;28;20572;-45
2022/07/06 11:06:15;;;;;;;2.80;0.97;;;23.30;55.60;;;;;;5028956;28;20474;-45
2022/07/06 11:09:03;;;;;;;3.73;1.10;;;23.40;55.40;;;;;;5032082;28;21009;-46
2022/07/06 11:11:41;;;;;;;2.43;1.10;;;23.40;55.20;;;;;;5031558;28;20436;-44
2022/07/06 11:14:09;;;;;;;3.30;1.33;;;23.30;55.70;;;;;;5030238;28;20552;-44
2022/07/06 11:16:38;;;;;;;2.27;0.70;;;23.30;54.60;;;;;;5031689;28;20472;-46
2022/07/06 11:19:11;;;;;;;7.33;1.23;;;23.50;54.40;;;;;;5031901;28;20444;-43
2022/07/06 11:21:45;;;;;;;3.27;1.10;;;23.10;55.00;;;;;;5032344;28;20457;-45
2022/07/06 11:27:59;;;;;;;14.63;8.50;;;23.10;55.40;;;;;;5031535;28;20508;-45
2022/07/06 11:30:26;;;;;;;4.63;1.00;;;23.00;56.10;;;;;;5031246;28;20428;-46
2022/07/06 11:32:53;;;;;;;3.93;1.00;;;23.00;56.50;;;;;;5031927;28;20880;-44
2022/07/06 11:35:23;;;;;;;2.60;1.17;;;22.70;56.50;;;;;;5030423;28;20470;-45
2022/07/06 11:37:50;;;;;;;2.97;0.80;;;22.90;57.00;;;;;;5030353;28;20966;-45
2022/07/06 11:40:19;;;;;;;4.93;1.20;;;22.80;57.10;;;;;;5030763;28;20440;-44
2022/07/06 11:42:54;;;;;;;4.10;1.63;;;22.90;57.10;;;;;;5031525;28;20506;-45
2022/07/06 11:45:26;;;;;;;2.13;1.10;;;23.00;56.90;;;;;;5031678;28;20433;-45
2022/07/06 11:48:10;;;;;;;3.53;1.50;;;23.00;56.80;;;;;;5031291;28;20447;-45
2022/07/06 11:50:39;;;;;;;2.70;1.30;;;23.10;56.90;;;;;;5031246;28;20489;-45
2022/07/06 11:53:06;;;;;;;3.10;1.20;;;23.00;56.50;;;;;;5034030;28;20441;-45
2022/07/06 11:55:35;;;;;;;4.57;1.50;;;23.10;56.00;;;;;;5035300;28;20464;-44
2022/07/06 11:58:03;;;;;;;2.17;1.00;;;23.10;55.80;;;;;;5035227;28;20807;-45
2022/07/06 12:00:30;;;;;;;2.70;1.00;;;23.10;55.30;;;;;;5034339;28;20440;-45
2022/07/06 12:03:00;;;;;;;5.00;0.93;;;23.10;54.90;;;;;;5035011;28;20470;-46
2022/07/06 12:05:31;;;;;;;1.90;0.90;;;23.10;54.70;;;;;;5034756;28;20925;-44
2022/07/06 12:08:06;;;;;;;5.67;1.10;;;23.20;54.90;;;;;;5034751;28;20451;-44
2022/07/06 12:10:34;;;;;;;3.83;2.10;;;23.20;55.30;;;;;;5033999;28;20941;-45
2022/07/06 12:13:04;;;;;;;7.53;2.07;;;23.30;55.40;;;;;;5035707;28;20522;-45
2022/07/06 12:15:33;;;;;;;7.57;1.00;;;23.50;55.60;;;;;;5035098;28;20437;-45
2022/07/06 12:18:02;;;;;;;4.30;1.13;;;23.60;55.50;;;;;;5034467;28;20436;-46
2022/07/06 12:20:29;;;;;;;2.03;1.00;;;23.70;55.40;;;;;;5034782;28;20425;-45
2022/07/06 12:23:02;;;;;;;5.93;1.17;;;23.70;55.40;;;;;;5033372;28;20450;-45
2022/07/06 12:25:34;;;;;;;3.67;1.00;;;23.50;55.20;;;;;;5034242;28;20473;-45
2022/07/06 12:28:04;;;;;;;5.33;1.40;;;23.40;55.40;;;;;;5034575;28;20554;-46
2022/07/06 12:30:31;;;;;;;1.90;0.90;;;23.40;55.40;;;;;;5034234;28;20574;-45
2022/07/06 12:33:15;;;;;;;2.10;0.87;;;23.30;55.40;;;;;;5034230;28;20432;-45
2022/07/06 12:35:42;;;;;;;2.53;1.00;;;23.30;55.10;;;;;;5033602;28;20499;-45
2022/07/06 12:38:09;;;;;;;2.83;1.00;;;23.40;55.20;;;;;;5054652;22;20500;-47
2022/07/06 12:40:39;;;;;;;4.50;0.80;;;23.00;54.40;;;;;;5032746;28;20433;-47
2022/07/06 12:43:08;;;;;;;6.67;1.13;;;23.70;55.30;;;;;;5033108;28;20479;-47
2022/07/06 12:45:35;;;;;;;2.57;0.90;;;23.80;54.90;;;;;;5031954;28;20479;-47
2022/07/06 12:48:04;;;;;;;3.30;0.80;;;23.90;54.80;;;;;;5031422;28;20963;-46
2022/07/06 12:50:33;;;;;;;11.10;1.27;;;24.00;54.70;;;;;;5032222;28;20456;-47
2022/07/06 12:53:00;;;;;;;7.23;1.50;;;24.10;54.60;;;;;;5032716;28;20491;-48
2022/07/06 12:55:28;;;;;;;2.90;1.10;;;24.00;54.40;;;;;;5032442;28;20476;-47
2022/07/06 12:57:58;;;;;;;9.10;1.50;;;23.90;54.70;;;;;;5030635;28;20986;-46
2022/07/06 13:00:26;;;;;;;8.57;1.63;;;24.00;54.60;;;;;;5032144;28;20522;-47